Time;durP1;ratioP1;P1;durP2;ratioP2;P2;SDS_P1;SDS_P2;PMS_P1;PMS_P2;Temp;Humidity;BMP_temperature;BMP_pressure;BME280_temperature;BME280_humidity;BME280_pressure;Samples;Min_cycle;Max_cycle;Signal;HPM_P1;HPM_P2
2022/06/10 00:00:43;;;;;;;0.93;0.93;;;;;13.10;98852.00;;;;5096305;28;20284;-79
2022/06/10 00:03:15;;;;;;;0.50;0.50;;;;;13.10;98852.00;;;;5096166;28;20202;-79
2022/06/10 00:05:43;;;;;;;0.67;0.67;;;;;13.00;98855.00;;;;5078515;28;20264;-79
2022/06/10 00:08:15;;;;;;;0.70;0.70;;;;;13.10;98851.00;;;;5096100;28;20267;-79
2022/06/10 00:10:45;;;;;;;0.50;0.50;;;;;13.20;98858.00;;;;5096152;28;20187;-77
2022/06/10 00:13:15;;;;;;;0.63;0.63;;;;;13.30;98853.00;;;;5096412;28;20191;-80
2022/06/10 00:15:42;;;;;;;1.00;1.00;;;;;13.30;98851.00;;;;5102859;28;20226;-78
2022/06/10 00:18:10;;;;;;;0.50;0.50;;;;;13.00;98841.00;;;;5096548;28;20309;-78
2022/06/10 00:20:37;;;;;;;0.50;0.50;;;;;13.00;98852.00;;;;5095856;28;20191;-79
2022/06/10 00:23:04;;;;;;;0.70;0.70;;;;;13.10;98842.00;;;;5095868;28;20225;-78
2022/06/10 00:25:31;;;;;;;0.60;0.60;;;;;13.10;98850.00;;;;5095903;28;20290;-79
2022/06/10 00:27:58;;;;;;;0.50;0.50;;;;;12.90;98852.00;;;;5095754;28;20203;-79
2022/06/10 00:30:28;;;;;;;0.87;0.87;;;;;12.90;98847.00;;;;5095914;28;20289;-79
2022/06/10 00:32:56;;;;;;;0.80;0.80;;;;;12.90;98852.00;;;;5096430;28;20207;-79
2022/06/10 00:35:25;;;;;;;1.37;0.83;;;;;12.90;98844.00;;;;5095617;28;20222;-78
2022/06/10 00:37:53;;;;;;;0.77;0.77;;;;;12.80;98842.00;;;;5077727;28;20764;-78
2022/06/10 00:40:23;;;;;;;0.60;0.60;;;;;12.80;98851.00;;;;5095623;28;20218;-79
2022/06/10 00:42:53;;;;;;;0.80;0.80;;;;;12.70;98853.00;;;;5095601;28;20951;-78
2022/06/10 00:45:59;;;;;;;0.60;0.60;;;;;12.70;98839.00;;;;5077724;28;20343;-78
2022/06/10 00:48:32;;;;;;;0.87;0.87;;;;;12.80;98843.00;;;;5088722;28;20238;-78
2022/06/10 00:51:03;;;;;;;0.73;0.73;;;;;12.80;98838.00;;;;5095474;28;20626;-78
2022/06/10 00:53:35;;;;;;;0.53;0.53;;;;;12.60;98844.00;;;;5095499;28;20202;-79
2022/06/10 00:56:06;;;;;;;0.50;0.50;;;;;12.60;98851.00;;;;5095329;28;20609;-77
2022/06/10 00:58:36;;;;;;;0.60;0.60;;;;;12.50;98849.00;;;;5095317;28;20222;-80
2022/06/10 01:01:04;;;;;;;0.50;0.50;;;;;12.40;98845.00;;;;5095449;28;20201;-78
2022/06/10 01:03:31;;;;;;;8.13;1.10;;;;;12.50;98850.00;;;;5095211;28;20255;-79
2022/06/10 01:06:00;;;;;;;3.40;2.10;;;;;12.50;98855.00;;;;5095179;28;20207;-78
2022/06/10 01:08:28;;;;;;;1.60;1.33;;;;;12.50;98851.00;;;;5095170;28;20720;-78
2022/06/10 01:11:06;;;;;;;0.70;0.70;;;;;12.50;98846.00;;;;5095137;28;20280;-79
2022/06/10 01:13:44;;;;;;;0.50;0.50;;;;;12.40;98855.00;;;;5095334;28;20282;-76
2022/06/10 01:16:18;;;;;;;0.40;0.40;;;;;12.40;98856.00;;;;5077190;28;20222;-78
2022/06/10 01:18:54;;;;;;;0.50;0.50;;;;;12.40;98857.00;;;;5095063;28;20652;-76
2022/06/10 01:22:00;;;;;;;0.47;0.47;;;;;12.30;98854.00;;;;5094986;28;20317;-78
2022/06/10 01:24:57;;;;;;;0.40;0.40;;;;;12.30;98856.00;;;;5095008;28;20206;-79
2022/06/10 01:27:48;;;;;;;0.90;0.90;;;;;12.40;98848.00;;;;5094979;28;20195;-79
2022/06/10 01:30:37;;;;;;;0.50;0.50;;;;;12.40;98850.00;;;;5094983;28;20191;-79
2022/06/10 01:33:22;;;;;;;0.87;0.87;;;;;12.40;98864.00;;;;5091578;28;20222;-77
2022/06/10 01:36:02;;;;;;;0.50;0.50;;;;;12.40;98856.00;;;;5094993;28;20251;-79
2022/06/10 01:38:36;;;;;;;0.50;0.50;;;;;12.30;98853.00;;;;5094955;28;20223;-80
2022/06/10 01:41:10;;;;;;;0.53;0.53;;;;;12.20;98855.00;;;;5082645;28;20220;-78
2022/06/10 01:43:47;;;;;;;0.50;0.50;;;;;12.20;98856.00;;;;5097448;28;20189;-79
2022/06/10 01:46:20;;;;;;;0.57;0.57;;;;;12.20;98854.00;;;;5094769;28;20251;-79
2022/06/10 01:48:52;;;;;;;1.00;1.00;;;;;12.10;98867.00;;;;5094701;28;20308;-79
2022/06/10 01:51:23;;;;;;;0.50;0.50;;;;;12.20;98865.00;;;;5094805;28;20209;-80
2022/06/10 01:53:58;;;;;;;0.60;0.60;;;;;12.10;98852.00;;;;5095309;28;20194;-80
2022/06/10 01:56:31;;;;;;;0.60;0.60;;;;;12.00;98859.00;;;;5079465;28;20198;-79
2022/06/10 01:59:01;;;;;;;0.50;0.50;;;;;12.00;98861.00;;;;5096162;28;20191;-80
2022/06/10 02:01:36;;;;;;;0.70;0.70;;;;;12.00;98871.00;;;;5094618;28;20222;-80
2022/06/10 02:04:08;;;;;;;0.77;0.77;;;;;12.00;98864.00;;;;5094485;28;20203;-79
2022/06/10 02:06:39;;;;;;;0.80;0.80;;;;;12.00;98860.00;;;;5076839;28;20190;-80
2022/06/10 02:09:11;;;;;;;0.70;0.70;;;;;12.00;98868.00;;;;5094338;28;20291;-79
2022/06/10 02:11:42;;;;;;;0.50;0.50;;;;;12.10;98867.00;;;;5094243;28;20218;-79
2022/06/10 02:14:13;;;;;;;0.57;0.57;;;;;12.00;98869.00;;;;5094158;28;20186;-79
2022/06/10 02:16:47;;;;;;;2.97;1.03;;;;;12.00;98864.00;;;;5094227;28;20197;-79
2022/06/10 02:19:19;;;;;;;0.67;0.60;;;;;11.90;98862.00;;;;5094147;28;20628;-79
2022/06/10 02:21:52;;;;;;;0.60;0.60;;;;;11.90;98867.00;;;;5093418;28;20230;-78
2022/06/10 02:24:22;;;;;;;0.80;0.80;;;;;11.80;98870.00;;;;5094240;28;20592;-79
2022/06/10 02:26:51;;;;;;;0.60;0.60;;;;;11.80;98863.00;;;;5094105;28;20400;-79
2022/06/10 02:29:21;;;;;;;2.30;1.10;;;;;11.70;98882.00;;;;5093891;28;20230;-79
2022/06/10 02:31:54;;;;;;;0.67;0.67;;;;;11.70;98881.00;;;;5076173;28;20198;-77
2022/06/10 02:34:22;;;;;;;0.70;0.70;;;;;11.70;98881.00;;;;5093872;28;20265;-79
2022/06/10 02:36:54;;;;;;;0.50;0.50;;;;;11.60;98883.00;;;;5076034;28;20734;-78
2022/06/10 02:39:25;;;;;;;0.70;0.70;;;;;11.60;98890.00;;;;5093876;28;20210;-79
2022/06/10 02:42:03;;;;;;;0.60;0.60;;;;;11.60;98896.00;;;;5076032;28;20230;-78
2022/06/10 02:44:43;;;;;;;1.13;1.13;;;;;11.70;98891.00;;;;5076023;28;20226;-79
2022/06/10 02:47:24;;;;;;;0.60;0.60;;;;;11.60;98892.00;;;;5077432;28;20217;-79
2022/06/10 02:49:52;;;;;;;2.43;1.00;;;;;11.60;98895.00;;;;5093797;28;20459;-79
2022/06/10 02:52:22;;;;;;;0.50;0.50;;;;;11.60;98898.00;;;;5093692;28;20210;-79
2022/06/10 02:54:49;;;;;;;0.80;0.80;;;;;11.70;98901.00;;;;5093713;28;20245;-79
2022/06/10 02:57:23;;;;;;;5.20;1.67;;;;;11.70;98899.00;;;;5093592;28;20237;-79
2022/06/10 03:02:50;;;;;;;0.50;0.50;;;;;11.50;98897.00;;;;5093506;28;20283;-78
2022/06/10 03:05:30;;;;;;;1.43;1.33;;;;;11.50;98901.00;;;;5093778;28;20252;-79
2022/06/10 03:08:08;;;;;;;0.70;0.70;;;;;11.50;98918.00;;;;5093549;28;20278;-80
2022/06/10 03:10:50;;;;;;;0.40;0.40;;;;;11.50;98911.00;;;;5093652;28;20626;-77
2022/06/10 03:13:34;;;;;;;1.00;1.00;;;;;11.50;98911.00;;;;5104222;28;20186;-79
2022/06/10 03:16:28;;;;;;;0.50;0.50;;;;;11.50;98922.00;;;;5100374;28;20198;-80
2022/06/10 03:19:07;;;;;;;0.87;0.87;;;;;11.40;98922.00;;;;5096391;28;20203;-80
2022/06/10 03:21:50;;;;;;;1.13;0.93;;;;;11.40;98922.00;;;;5095897;28;20222;-78
2022/06/10 03:24:25;;;;;;;0.70;0.70;;;;;11.40;98932.00;;;;5093415;28;20652;-79
2022/06/10 03:26:59;;;;;;;0.50;0.50;;;;;11.40;98923.00;;;;5075562;28;20597;-78
2022/06/10 03:29:33;;;;;;;2.30;1.13;;;;;11.30;98927.00;;;;5093433;28;20260;-79
2022/06/10 03:32:06;;;;;;;0.87;0.87;;;;;11.30;98923.00;;;;5093309;28;20202;-78
2022/06/10 03:34:37;;;;;;;0.63;0.63;;;;;11.30;98931.00;;;;5096073;28;20222;-77
2022/06/10 03:37:07;;;;;;;0.50;0.50;;;;;11.30;98930.00;;;;5096741;28;20728;-79
2022/06/10 03:39:39;;;;;;;0.50;0.50;;;;;11.30;98935.00;;;;5079149;28;20198;-77
2022/06/10 03:42:12;;;;;;;2.40;0.97;;;;;11.30;98937.00;;;;5096830;28;20273;-78
2022/06/10 03:44:40;;;;;;;0.50;0.50;;;;;11.30;98942.00;;;;5078982;28;20207;-78
2022/06/10 03:47:11;;;;;;;0.57;0.57;;;;;11.40;98941.00;;;;5096539;28;20191;-79
2022/06/10 03:49:45;;;;;;;0.77;0.77;;;;;11.20;98943.00;;;;5096677;28;20266;-79
2022/06/10 03:52:19;;;;;;;1.10;1.10;;;;;11.20;98939.00;;;;5096642;28;20641;-78
2022/06/10 03:54:46;;;;;;;0.40;0.40;;;;;11.10;98943.00;;;;5096484;28;20219;-79
2022/06/10 03:57:14;;;;;;;0.60;0.60;;;;;11.30;98947.00;;;;5096522;28;20265;-79
2022/06/10 03:59:41;;;;;;;0.60;0.60;;;;;11.40;98943.00;;;;5096541;28;20242;-78
2022/06/10 04:02:07;;;;;;;0.60;0.60;;;;;11.40;98948.00;;;;5078610;28;20227;-77
2022/06/10 04:04:34;;;;;;;1.00;1.00;;;;;11.40;98960.00;;;;5096642;28;20222;-79
2022/06/10 04:07:04;;;;;;;0.73;0.73;;;;;11.50;98957.00;;;;5096263;28;20261;-79
2022/06/10 04:09:31;;;;;;;1.87;1.77;;;;;11.50;98959.00;;;;5078523;28;20206;-79
2022/06/10 04:11:58;;;;;;;0.60;0.60;;;;;11.60;98956.00;;;;5101329;28;20194;-79
2022/06/10 04:14:25;;;;;;;0.80;0.80;;;;;11.60;98954.00;;;;5095753;28;20321;-79
2022/06/10 04:16:52;;;;;;;0.73;0.73;;;;;11.60;98961.00;;;;5096104;28;20209;-79
2022/06/10 04:19:19;;;;;;;0.87;0.87;;;;;11.70;98960.00;;;;5096119;28;20566;-79
2022/06/10 04:21:46;;;;;;;0.73;0.73;;;;;11.80;98967.00;;;;5078310;28;20670;-79
2022/06/10 04:24:13;;;;;;;2.00;1.80;;;;;11.80;98965.00;;;;5096211;28;20187;-79
2022/06/10 04:26:41;;;;;;;0.50;0.50;;;;;11.80;98967.00;;;;5095187;28;20561;-79
2022/06/10 04:29:08;;;;;;;2.73;1.03;;;;;11.70;98976.00;;;;5096114;28;20206;-79
2022/06/10 04:31:37;;;;;;;0.50;0.50;;;;;11.80;98968.00;;;;5096005;28;20214;-79
2022/06/10 04:34:06;;;;;;;0.93;0.93;;;;;11.90;98966.00;;;;5095853;28;20234;-79
2022/06/10 04:36:33;;;;;;;0.60;0.60;;;;;12.00;98972.00;;;;5078459;28;20213;-77
2022/06/10 04:39:00;;;;;;;0.60;0.60;;;;;12.10;98979.00;;;;5095865;28;20218;-79
2022/06/10 04:41:27;;;;;;;0.60;0.60;;;;;12.10;98974.00;;;;5095847;28;20214;-79
2022/06/10 04:43:54;;;;;;;0.70;0.70;;;;;12.10;98976.00;;;;5095368;28;20194;-79
2022/06/10 04:46:25;;;;;;;0.60;0.60;;;;;12.10;98985.00;;;;5095753;28;20209;-79
2022/06/10 04:48:52;;;;;;;0.77;0.77;;;;;12.10;98980.00;;;;5095760;28;20203;-78
2022/06/10 04:51:19;;;;;;;0.93;0.93;;;;;12.20;98985.00;;;;5077799;28;20232;-79
2022/06/10 04:53:46;;;;;;;2.00;1.27;;;;;12.20;98981.00;;;;5095524;28;20252;-78
2022/06/10 04:56:13;;;;;;;0.50;0.50;;;;;12.30;98984.00;;;;5095680;28;20225;-78
2022/06/10 04:58:43;;;;;;;0.70;0.70;;;;;12.30;98985.00;;;;5095396;28;20214;-79
2022/06/10 05:01:11;;;;;;;1.20;1.10;;;;;12.50;98985.00;;;;5096519;28;20279;-80
2022/06/10 05:03:38;;;;;;;0.70;0.70;;;;;12.50;98986.00;;;;5098904;28;20649;-79
2022/06/10 05:06:06;;;;;;;0.50;0.50;;;;;12.50;98982.00;;;;5078822;28;20634;-79
2022/06/10 05:08:33;;;;;;;0.60;0.60;;;;;12.50;98991.00;;;;5098065;28;20224;-79
2022/06/10 05:10:59;;;;;;;0.73;0.73;;;;;12.70;98989.00;;;;5108025;28;20201;-79
2022/06/10 05:13:27;;;;;;;0.80;0.80;;;;;12.70;98995.00;;;;5095795;28;20217;-79
2022/06/10 05:15:54;;;;;;;0.70;0.70;;;;;12.70;98994.00;;;;5095613;28;20263;-79
2022/06/10 05:18:23;;;;;;;0.70;0.70;;;;;12.80;98992.00;;;;5095323;28;20222;-79
2022/06/10 05:20:54;;;;;;;0.40;0.40;;;;;12.80;98995.00;;;;5095319;28;20218;-79
2022/06/10 05:23:25;;;;;;;0.73;0.73;;;;;12.90;99005.00;;;;5095306;28;20199;-79
2022/06/10 05:25:54;;;;;;;0.70;0.70;;;;;12.90;98997.00;;;;5095046;28;20545;-79
2022/06/10 05:28:23;;;;;;;0.90;0.90;;;;;12.90;98994.00;;;;5083156;28;20226;-79
2022/06/10 05:30:52;;;;;;;0.70;0.70;;;;;12.90;99000.00;;;;5097114;28;20281;-79
2022/06/10 05:33:19;;;;;;;1.50;1.07;;;;;12.90;99004.00;;;;5095187;28;20201;-79
2022/06/10 05:35:47;;;;;;;1.10;1.00;;;;;13.00;99002.00;;;;5095101;28;20590;-79
2022/06/10 05:38:15;;;;;;;0.57;0.57;;;;;13.10;99005.00;;;;5094980;28;20672;-79
2022/06/10 05:40:44;;;;;;;0.80;0.80;;;;;13.20;99009.00;;;;5095013;28;20230;-79
2022/06/10 05:43:10;;;;;;;0.70;0.70;;;;;13.20;99009.00;;;;5095109;28;20621;-79
2022/06/10 05:45:37;;;;;;;0.70;0.70;;;;;13.30;99019.00;;;;5094737;28;20661;-80
2022/06/10 05:48:05;;;;;;;0.70;0.70;;;;;13.30;99013.00;;;;5094796;28;20249;-80
2022/06/10 05:50:35;;;;;;;0.77;0.77;;;;;13.40;99009.00;;;;5094603;28;20198;-77
2022/06/10 05:53:08;;;;;;;0.73;0.73;;;;;13.50;99015.00;;;;5094743;28;20240;-78
2022/06/10 05:55:36;;;;;;;1.40;0.83;;;;;13.60;99019.00;;;;5096794;28;20202;-77
2022/06/10 05:58:03;;;;;;;6.60;1.43;;;;;13.60;99022.00;;;;5095208;28;20235;-78
2022/06/10 06:00:32;;;;;;;0.77;0.77;;;;;13.60;99031.00;;;;5076702;28;20226;-78
2022/06/10 06:02:59;;;;;;;0.77;0.77;;;;;13.70;99030.00;;;;5077116;28;20520;-82
2022/06/10 06:05:28;;;;;;;0.60;0.60;;;;;13.80;99029.00;;;;5094573;28;20220;-82
2022/06/10 06:07:55;;;;;;;0.80;0.80;;;;;13.80;99023.00;;;;5094442;28;20225;-83
2022/06/10 06:10:25;;;;;;;0.90;0.90;;;;;13.90;99026.00;;;;5094392;28;20198;-80
2022/06/10 06:12:52;;;;;;;0.60;0.60;;;;;14.00;99020.00;;;;5094581;28;20289;-79
2022/06/10 06:15:20;;;;;;;0.67;0.67;;;;;14.00;99022.00;;;;5094303;28;20206;-78
2022/06/10 06:17:50;;;;;;;0.60;0.60;;;;;14.00;99028.00;;;;5094317;28;20229;-75
2022/06/10 06:20:21;;;;;;;0.60;0.60;;;;;14.10;99034.00;;;;5094363;28;20226;-74
2022/06/10 06:22:48;;;;;;;0.50;0.50;;;;;14.20;99034.00;;;;5094511;28;20195;-77
2022/06/10 06:25:18;;;;;;;1.07;0.97;;;;;14.30;99028.00;;;;5094001;28;20244;-75
2022/06/10 06:27:48;;;;;;;0.50;0.50;;;;;14.40;99039.00;;;;5094048;28;20262;-73
2022/06/10 06:30:18;;;;;;;0.60;0.60;;;;;14.50;99029.00;;;;5093845;28;20207;-75
2022/06/10 06:32:45;;;;;;;0.77;0.77;;;;;14.50;99037.00;;;;5093842;28;20228;-74
2022/06/10 06:35:11;;;;;;;0.73;0.73;;;;;14.70;99038.00;;;;5094296;28;20209;-76
2022/06/10 06:37:41;;;;;;;7.57;1.27;;;;;14.70;99040.00;;;;5094068;28;20214;-75
2022/06/10 06:40:09;;;;;;;0.97;0.97;;;;;14.80;99043.00;;;;5093829;28;20289;-76
2022/06/10 06:42:36;;;;;;;0.70;0.70;;;;;14.90;99042.00;;;;5093781;28;20194;-76
2022/06/10 06:45:05;;;;;;;1.30;1.20;;;;;14.90;99033.00;;;;5093816;28;20306;-74
2022/06/10 06:47:32;;;;;;;0.50;0.50;;;;;14.90;99031.00;;;;5093545;28;20210;-76
2022/06/10 06:50:00;;;;;;;0.50;0.50;;;;;15.00;99031.00;;;;5093673;28;20201;-75
2022/06/10 06:52:27;;;;;;;0.50;0.50;;;;;15.10;99035.00;;;;5093825;28;20229;-75
2022/06/10 06:54:54;;;;;;;0.70;0.70;;;;;15.10;99027.00;;;;5093727;28;20642;-74
2022/06/10 06:57:20;;;;;;;0.60;0.60;;;;;15.20;99037.00;;;;5093677;28;20218;-74
2022/06/10 06:59:47;;;;;;;0.50;0.50;;;;;15.20;99040.00;;;;5093550;28;20638;-74
2022/06/10 07:02:15;;;;;;;1.63;1.53;;;;;15.30;99042.00;;;;5075559;28;20195;-74
2022/06/10 07:04:41;;;;;;;0.50;0.50;;;;;15.30;99041.00;;;;5093557;28;20558;-76
2022/06/10 07:07:08;;;;;;;0.43;0.43;;;;;15.50;99048.00;;;;5096469;28;20214;-75
2022/06/10 07:09:35;;;;;;;0.70;0.70;;;;;15.50;99042.00;;;;5103855;28;20191;-76
2022/06/10 07:12:05;;;;;;;0.40;0.40;;;;;15.60;99041.00;;;;5097211;28;20205;-72
2022/06/10 07:14:32;;;;;;;0.70;0.70;;;;;15.60;99041.00;;;;5096944;28;20194;-74
2022/06/10 07:16:59;;;;;;;0.77;0.77;;;;;15.70;99041.00;;;;5096868;28;20293;-72
2022/06/10 07:19:26;;;;;;;0.93;0.93;;;;;15.70;99044.00;;;;5097301;28;20195;-72
2022/06/10 07:21:53;;;;;;;0.83;0.83;;;;;15.80;99042.00;;;;5097317;28;20263;-75
2022/06/10 07:24:20;;;;;;;0.93;0.93;;;;;15.80;99049.00;;;;5096892;28;20577;-75
2022/06/10 07:26:47;;;;;;;0.60;0.60;;;;;15.90;99050.00;;;;5096853;28;20665;-75
2022/06/10 07:29:14;;;;;;;0.50;0.50;;;;;16.00;99054.00;;;;5096992;28;20222;-75
2022/06/10 07:31:41;;;;;;;3.80;1.40;;;;;16.10;99052.00;;;;5097283;28;20202;-76
2022/06/10 07:34:09;;;;;;;0.60;0.60;;;;;16.10;99037.00;;;;5097186;28;20285;-72
2022/06/10 07:36:37;;;;;;;0.50;0.50;;;;;16.20;99041.00;;;;5079035;28;20236;-72
2022/06/10 07:39:04;;;;;;;0.70;0.70;;;;;16.40;99038.00;;;;5096737;28;20215;-72
2022/06/10 07:44:20;;;;;;;0.80;0.80;;;;;16.40;99041.00;;;;5096679;28;20528;-73
2022/06/10 07:46:49;;;;;;;0.50;0.50;;;;;16.50;99036.00;;;;5096426;28;20591;-74
2022/06/10 07:49:17;;;;;;;0.57;0.57;;;;;16.70;99037.00;;;;5096324;28;20218;-75
2022/06/10 07:51:45;;;;;;;0.53;0.53;;;;;16.80;99032.00;;;;5078614;28;20210;-76
2022/06/10 07:54:12;;;;;;;0.60;0.60;;;;;16.90;99038.00;;;;5078797;28;20287;-73
2022/06/10 07:56:39;;;;;;;0.63;0.63;;;;;16.90;99029.00;;;;5096323;28;20187;-72
2022/06/10 07:59:07;;;;;;;1.27;1.23;;;;;17.00;99032.00;;;;5096203;28;20215;-72
2022/06/10 08:01:35;;;;;;;0.60;0.60;;;;;17.00;99034.00;;;;5096227;28;20190;-72
2022/06/10 08:04:02;;;;;;;0.53;0.53;;;;;17.10;99033.00;;;;5097949;28;20292;-73
2022/06/10 08:06:30;;;;;;;0.53;0.53;;;;;17.20;99032.00;;;;5098675;28;20211;-75
2022/06/10 08:09:00;;;;;;;0.70;0.70;;;;;17.20;99035.00;;;;5096616;28;20237;-72
2022/06/10 08:11:28;;;;;;;0.50;0.50;;;;;17.30;99032.00;;;;5096403;28;20626;-72
2022/06/10 08:13:54;;;;;;;0.70;0.70;;;;;17.30;99035.00;;;;5078512;28;20205;-73
2022/06/10 08:16:22;;;;;;;0.97;0.97;;;;;17.40;99035.00;;;;5096084;28;20294;-72
2022/06/10 08:18:50;;;;;;;0.63;0.63;;;;;17.70;99037.00;;;;5095174;28;20288;-73
2022/06/10 08:24:06;;;;;;;0.70;0.70;;;;;17.80;99040.00;;;;5095962;28;20195;-73
2022/06/10 08:26:36;;;;;;;1.03;1.03;;;;;17.80;99032.00;;;;5095820;28;20202;-73
2022/06/10 08:29:04;;;;;;;0.50;0.50;;;;;17.90;99032.00;;;;5095823;28;20237;-71
2022/06/10 08:31:32;;;;;;;0.70;0.70;;;;;18.20;99030.00;;;;5097187;28;20703;-74
2022/06/10 08:33:59;;;;;;;0.30;0.30;;;;;18.20;99033.00;;;;5078114;28;20297;-73
2022/06/10 08:36:26;;;;;;;0.80;0.80;;;;;18.30;99028.00;;;;5095652;28;20187;-73
2022/06/10 08:38:53;;;;;;;0.57;0.57;;;;;18.30;99037.00;;;;5095505;28;20225;-73
2022/06/10 08:41:30;;;;;;;0.70;0.70;;;;;18.30;99039.00;;;;5095597;28;20260;-72
2022/06/10 08:44:09;;;;;;;1.13;1.07;;;;;18.60;99041.00;;;;5095626;28;20194;-72
2022/06/10 08:47:04;;;;;;;1.03;0.77;;;;;18.70;99039.00;;;;5095710;28;20205;-71
2022/06/10 08:49:55;;;;;;;0.40;0.40;;;;;18.70;99031.00;;;;5095474;28;20252;-72
2022/06/10 08:52:31;;;;;;;3.53;1.33;;;;;19.00;99032.00;;;;5095498;28;20233;-72
2022/06/10 08:55:11;;;;;;;0.50;0.50;;;;;18.70;99035.00;;;;5095312;28;20222;-73
2022/06/10 08:57:40;;;;;;;0.63;0.63;;;;;18.60;99036.00;;;;5095688;28;20203;-74
2022/06/10 09:00:14;;;;;;;0.50;0.50;;;;;18.80;99031.00;;;;5077367;28;20232;-73
2022/06/10 09:02:48;;;;;;;0.87;0.87;;;;;18.80;99030.00;;;;5077794;28;20202;-74
2022/06/10 09:05:19;;;;;;;0.67;0.67;;;;;18.80;99035.00;;;;5095432;28;20194;-73
2022/06/10 09:07:52;;;;;;;0.60;0.60;;;;;18.90;99032.00;;;;5095155;28;20226;-72
2022/06/10 09:10:26;;;;;;;5.93;1.73;;;;;18.90;99039.00;;;;5095392;28;20198;-72
2022/06/10 09:13:20;;;;;;;0.60;0.60;;;;;19.20;99029.00;;;;5095225;28;20199;-72
2022/06/10 09:15:53;;;;;;;0.60;0.60;;;;;19.30;99029.00;;;;5095354;28;20206;-73
2022/06/10 09:18:30;;;;;;;0.43;0.43;;;;;19.40;99037.00;;;;5095014;28;20283;-72
2022/06/10 09:21:05;;;;;;;0.73;0.73;;;;;19.60;99031.00;;;;5095104;28;20214;-72
2022/06/10 09:23:38;;;;;;;0.50;0.50;;;;;19.60;99034.00;;;;5095114;28;20285;-74
2022/06/10 09:26:10;;;;;;;1.47;1.07;;;;;19.80;99032.00;;;;5095163;28;20217;-72
2022/06/10 09:28:38;;;;;;;0.80;0.80;;;;;20.00;99042.00;;;;5095011;28;20669;-73
2022/06/10 09:31:12;;;;;;;0.33;0.33;;;;;20.10;99033.00;;;;5094927;28;20205;-72
2022/06/10 09:33:46;;;;;;;0.40;0.40;;;;;20.10;99037.00;;;;5094785;28;20234;-73
2022/06/10 09:36:27;;;;;;;1.10;1.10;;;;;20.30;99047.00;;;;5094772;28;20210;-72
2022/06/10 09:39:01;;;;;;;0.57;0.57;;;;;20.20;99032.00;;;;5094768;28;20229;-73
2022/06/10 09:41:35;;;;;;;0.50;0.50;;;;;20.50;99031.00;;;;5094768;28;20251;-73
2022/06/10 09:44:12;;;;;;;0.50;0.50;;;;;20.40;99028.00;;;;5094874;28;20272;-73
2022/06/10 09:46:58;;;;;;;0.60;0.60;;;;;20.60;99038.00;;;;5094584;28;20222;-74
2022/06/10 09:49:47;;;;;;;0.60;0.60;;;;;20.40;99034.00;;;;5094666;28;20183;-72
2022/06/10 09:52:20;;;;;;;0.40;0.40;;;;;20.60;99038.00;;;;5094480;28;20226;-74
2022/06/10 09:55:02;;;;;;;1.33;1.23;;;;;20.60;99024.00;;;;5094463;28;20210;-74
2022/06/10 09:57:59;;;;;;;0.40;0.40;;;;;20.90;99032.00;;;;5094464;28;20223;-76
2022/06/10 10:00:33;;;;;;;0.63;0.63;;;;;20.80;99030.00;;;;5094500;28;20206;-75
2022/06/10 10:03:13;;;;;;;0.40;0.40;;;;;20.70;99029.00;;;;5094343;28;20187;-75
2022/06/10 10:05:57;;;;;;;1.23;1.13;;;;;20.50;99027.00;;;;5094254;28;20245;-75
2022/06/10 10:08:34;;;;;;;0.50;0.50;;;;;20.30;99032.00;;;;5094262;28;20661;-73
2022/06/10 10:11:11;;;;;;;0.30;0.30;;;;;20.30;99025.00;;;;5094177;28;20233;-74
2022/06/10 10:13:57;;;;;;;0.50;0.50;;;;;20.30;99022.00;;;;5094756;28;20190;-74
2022/06/10 10:16:35;;;;;;;1.03;1.03;;;;;20.50;99018.00;;;;5096250;28;20183;-72
2022/06/10 10:19:23;;;;;;;1.73;0.80;;;;;20.90;99025.00;;;;5093930;28;20245;-72
2022/06/10 10:21:58;;;;;;;0.60;0.60;;;;;20.90;99016.00;;;;5094208;28;20191;-71
2022/06/10 10:24:26;;;;;;;0.60;0.60;;;;;21.20;99009.00;;;;5093919;28;20221;-73
2022/06/10 10:26:55;;;;;;;0.70;0.70;;;;;21.60;99010.00;;;;5093953;28;20283;-75
2022/06/10 10:29:25;;;;;;;0.50;0.50;;;;;22.00;99015.00;;;;5093946;28;20198;-74
2022/06/10 10:31:59;;;;;;;0.68;0.68;;;;;22.20;99014.00;;;;5093879;28;20218;-73
2022/06/10 10:34:36;;;;;;;0.50;0.50;;;;;22.40;98995.00;;;;5093943;28;20174;-73
2022/06/10 10:37:22;;;;;;;0.60;0.60;;;;;22.60;99004.00;;;;5093772;28;20283;-73
2022/06/10 10:39:51;;;;;;;0.70;0.70;;;;;22.80;99005.00;;;;5093860;28;20202;-75
2022/06/10 10:42:20;;;;;;;1.48;0.85;;;;;23.00;99007.00;;;;5093271;28;20224;-74
2022/06/10 10:44:51;;;;;;;0.40;0.40;;;;;23.30;99012.00;;;;5093882;28;20230;-74
2022/06/10 10:47:22;;;;;;;0.50;0.50;;;;;23.40;99006.00;;;;5097766;28;20194;-75
2022/06/10 10:49:53;;;;;;;0.35;0.35;;;;;23.40;99005.00;;;;5093673;28;20214;-75
2022/06/10 10:52:24;;;;;;;0.93;0.93;;;;;23.40;99009.00;;;;5093697;28;20219;-75
2022/06/10 10:54:54;;;;;;;0.65;0.65;;;;;23.40;99007.00;;;;5093943;28;20206;-75
2022/06/10 10:57:29;;;;;;;0.77;0.77;;;;;23.70;99015.00;;;;5093880;28;20284;-75
2022/06/10 11:00:22;;;;;;;0.85;0.85;;;;;23.80;99006.00;;;;5093747;28;20564;-71
2022/06/10 11:02:52;;;;;;;0.70;0.70;;;;;24.00;98999.00;;;;5093622;28;20246;-72
2022/06/10 11:05:46;;;;;;;0.85;0.82;;;;;24.00;99001.00;;;;5093434;28;20191;-72
2022/06/10 11:08:19;;;;;;;3.03;0.82;;;;;24.40;98999.00;;;;5093589;28;20240;-72
2022/06/10 11:11:14;;;;;;;0.60;0.60;;;;;24.40;99004.00;;;;5093704;28;20218;-71
2022/06/10 11:13:51;;;;;;;0.93;0.80;;;;;24.30;99000.00;;;;5093600;28;20256;-71
2022/06/10 11:16:36;;;;;;;0.55;0.55;;;;;24.60;98999.00;;;;5093244;28;20301;-72
2022/06/10 11:19:41;;;;;;;4.82;1.13;;;;;24.60;98993.00;;;;5093418;28;20258;-71
2022/06/10 11:22:17;;;;;;;6.60;1.25;;;;;25.00;98988.00;;;;5011920;28;20205;-70
2022/06/10 11:24:49;;;;;;;0.70;0.70;;;;;25.40;98996.00;;;;5084182;28;20210;-70
2022/06/10 11:27:23;;;;;;;1.17;1.17;;;;;25.50;98994.00;;;;5093366;28;20230;-71
2022/06/10 11:30:01;;;;;;;0.60;0.60;;;;;25.90;98995.00;;;;5093194;28;20642;-70
2022/06/10 11:32:32;;;;;;;0.60;0.60;;;;;26.10;98992.00;;;;5093240;28;20287;-70
2022/06/10 11:35:02;;;;;;;1.67;1.23;;;;;26.50;98995.00;;;;5093055;28;20195;-70
2022/06/10 11:37:34;;;;;;;1.20;1.05;;;;;26.60;98992.00;;;;5093509;28;20179;-70
2022/06/10 11:40:11;;;;;;;2.85;1.13;;;;;26.80;98994.00;;;;5092884;28;20237;-70
2022/06/10 11:42:44;;;;;;;0.70;0.70;;;;;26.70;98985.00;;;;5095110;28;20219;-71
2022/06/10 11:45:18;;;;;;;2.88;1.85;;;;;27.00;98979.00;;;;5075542;28;20201;-71
2022/06/10 11:47:53;;;;;;;1.00;1.00;;;;;27.10;98982.00;;;;5075320;28;20267;-73
2022/06/10 11:50:27;;;;;;;0.50;0.50;;;;;27.50;98976.00;;;;5093111;28;20699;-71
2022/06/10 11:53:04;;;;;;;0.77;0.77;;;;;27.50;98980.00;;;;5075094;28;20199;-71
2022/06/10 11:55:35;;;;;;;0.75;0.75;;;;;27.50;98978.00;;;;5095644;28;20275;-71
2022/06/10 12:01:00;;;;;;;0.77;0.77;;;;;27.30;98977.00;;;;5056415;28;20253;-71
2022/06/10 12:03:31;;;;;;;0.52;0.52;;;;;27.00;98970.00;;;;5096338;28;20225;-71
2022/06/10 12:06:06;;;;;;;0.60;0.60;;;;;26.90;98975.00;;;;5096314;28;20191;-71
2022/06/10 12:08:42;;;;;;;1.23;1.05;;;;;27.10;98963.00;;;;5096142;28;20673;-71
2022/06/10 12:11:27;;;;;;;2.92;0.80;;;;;27.30;98967.00;;;;5096330;28;20251;-71
2022/06/10 12:14:01;;;;;;;1.48;0.90;;;;;27.50;98971.00;;;;5096371;28;20217;-73
2022/06/10 12:16:30;;;;;;;0.70;0.70;;;;;27.10;98964.00;;;;5096217;28;20205;-71
2022/06/10 12:19:06;;;;;;;0.60;0.60;;;;;27.20;98960.00;;;;5078123;28;20618;-72
2022/06/10 12:21:34;;;;;;;0.60;0.60;;;;;27.60;98959.00;;;;5095948;28;20611;-72
2022/06/10 12:24:01;;;;;;;0.70;0.70;;;;;27.60;98958.00;;;;5096188;28;20210;-73
2022/06/10 12:26:37;;;;;;;1.55;1.45;;;;;27.90;98948.00;;;;5095964;28;20692;-71
2022/06/10 12:29:13;;;;;;;0.52;0.52;;;;;28.20;98946.00;;;;5095895;28;20245;-71
2022/06/10 12:31:51;;;;;;;0.55;0.55;;;;;28.30;98948.00;;;;5096133;28;20194;-72
2022/06/10 12:34:35;;;;;;;0.70;0.70;;;;;28.50;98948.00;;;;5095732;28;20242;-72
2022/06/10 12:37:06;;;;;;;0.60;0.60;;;;;28.60;98943.00;;;;5096053;28;20360;-71
2022/06/10 12:39:40;;;;;;;1.02;0.80;;;;;28.80;98939.00;;;;5095573;28;20234;-71
2022/06/10 12:42:13;;;;;;;1.45;0.60;;;;;29.00;98939.00;;;;5096053;28;20210;-73
2022/06/10 12:44:48;;;;;;;0.70;0.70;;;;;29.10;98941.00;;;;5095589;28;20194;-72
2022/06/10 12:47:27;;;;;;;0.70;0.70;;;;;29.30;98935.00;;;;5095969;28;20211;-73
2022/06/10 12:49:59;;;;;;;0.55;0.55;;;;;29.10;98944.00;;;;5095580;28;20256;-72
2022/06/10 12:52:44;;;;;;;0.50;0.50;;;;;28.80;98941.00;;;;5077842;28;20199;-74
2022/06/10 12:55:24;;;;;;;0.80;0.80;;;;;29.30;98933.00;;;;5095562;28;20194;-72